Aalborg Airport

Airport
ICAO code: 
EKYT
IATA Code: 
AAL
Summary
ICAO Region: 
EUR
Territory: 
Location: 
Aalborg, Nordjylland
Serving: 
Aalborg
Elevation: 
10 ft
Coordinates: 
Aerial View: 
57° 5' 40.42" N, 9° 51' 20.656" E
Metar
Observation
EKYT 252020Z AUTO 19008KT 9999 FEW075/// SCT095/// 12/09 Q1006
Station
Aalborg
Date/Time
2022-05-25 20:20:00
Wind direction
190°
Wind speed
08 kts
Lowest cloud amount
few clouds
Temperature
12°C
Dew point
9°C
Humidity
81%
QNH
1006 hPa
Weather condition
n/a

Description

International airport serving Aalborg and northern Denmark; joint civil military use with parallel runways of similar length.

Climatology

Temperate Marine climate/Oceanic climate (Köppen climate classification Cfb). Moderately cool summer and comparatively warm winter with a temperature range of only 14°C. Prevailing south-westerly winds.

Runways

Designator Length Width Surface Rops
08R/26L 2549 23 ASP Yes/Yes
08L/26R 2654 45 PEM Yes/Yes
Airport map: 
Aerial View: 

Accidents and Serious Incidents at or in the vicinity of EKYT

SKYbrary Partners:

Safety knowledge contributed by: